Time;durP1;ratioP1;P1;durP2;ratioP2;P2;SDS_P1;SDS_P2;PMS_P1;PMS_P2;Temp;Humidity;BMP_temperature;BMP_pressure;BME280_temperature;BME280_humidity;BME280_pressure;Samples;Min_cycle;Max_cycle;Signal;HPM_P1;HPM_P2
2022/07/05 00:01:34;;;;;;;0.50;0.50;;;;;;;19.57;49.46;98334.75;4945199;29;20047;-82
2022/07/05 00:04:01;;;;;;;0.50;0.50;;;;;;;19.53;49.29;98329.13;4948718;29;20077;-82
2022/07/05 00:06:27;;;;;;;0.68;0.68;;;;;;;19.50;49.64;98334.97;4948200;29;20102;-81
2022/07/05 00:08:54;;;;;;;0.50;0.50;;;;;;;19.46;49.98;98334.66;4947312;29;20063;-82
2022/07/05 00:11:21;;;;;;;0.60;0.60;;;;;;;19.43;50.04;98335.16;4948307;28;20494;-81
2022/07/05 00:13:47;;;;;;;0.70;0.70;;;;;;;19.37;49.88;98335.34;4938085;29;20052;-81
2022/07/05 00:16:14;;;;;;;0.52;0.50;;;;;;;19.44;49.17;98331.44;4950164;29;20043;-82
2022/07/05 00:18:42;;;;;;;0.60;0.60;;;;;;;19.48;49.94;98340.50;4951753;29;20035;-82
2022/07/05 00:21:09;;;;;;;0.68;0.68;;;;;;;19.43;50.64;98345.81;4955886;29;20098;-82
2022/07/05 00:23:35;;;;;;;0.68;0.60;;;;;;;19.38;50.19;98350.28;4949602;28;20423;-82
2022/07/05 00:26:02;;;;;;;0.70;0.70;;;;;;;19.22;49.48;98336.78;4951008;28;20055;-84
2022/07/05 00:28:29;;;;;;;0.60;0.60;;;;;;;19.23;50.72;98342.91;4954759;28;20067;-82
2022/07/05 00:30:55;;;;;;;0.50;0.50;;;;;;;19.20;50.73;98338.91;4944724;29;20070;-82
2022/07/05 00:33:22;;;;;;;0.70;0.70;;;;;;;19.11;49.70;98336.94;4942044;29;20082;-83
2022/07/05 00:35:49;;;;;;;0.82;0.57;;;;;;;19.09;50.27;98344.34;4948266;29;20047;-82
2022/07/05 00:38:15;;;;;;;0.65;0.65;;;;;;;19.01;51.45;98342.13;4954858;29;20050;-82
2022/07/05 00:40:43;;;;;;;0.60;0.50;;;;;;;19.02;50.72;98347.22;4949823;28;20368;-82
2022/07/05 00:43:10;;;;;;;0.60;0.60;;;;;;;18.97;50.98;98339.16;4950101;29;20192;-82
2022/07/05 00:45:37;;;;;;;1.10;0.50;;;;;;;18.97;51.75;98339.97;4953696;28;20055;-82
2022/07/05 00:48:03;;;;;;;0.60;0.60;;;;;;;18.97;51.13;98331.19;4942508;29;20043;-82
2022/07/05 00:50:30;;;;;;;0.82;0.68;;;;;;;18.93;51.31;98352.13;4953249;28;20035;-82
2022/07/05 00:52:59;;;;;;;0.60;0.60;;;;;;;18.86;51.18;98348.88;4950983;29;20074;-82
2022/07/05 00:55:25;;;;;;;1.13;0.70;;;;;;;18.75;51.56;98344.47;4968013;28;20051;-81
2022/07/05 00:57:54;;;;;;;0.70;0.70;;;;;;;18.69;52.28;98348.91;4949675;28;20090;-82
2022/07/05 01:00:21;;;;;;;0.95;0.65;;;;;;;18.66;52.26;98345.94;4954200;29;20044;-82
2022/07/05 01:02:48;;;;;;;1.60;0.73;;;;;;;18.62;51.36;98339.50;4949294;28;20071;-81
2022/07/05 01:05:15;;;;;;;0.95;0.88;;;;;;;18.57;52.26;98344.72;4946074;29;20408;-83
2022/07/05 01:07:42;;;;;;;1.25;0.80;;;;;;;18.55;51.93;98344.19;4956084;28;20043;-82
2022/07/05 01:10:10;;;;;;;0.68;0.68;;;;;;;18.60;52.62;98353.03;4955001;28;20074;-82
2022/07/05 01:12:39;;;;;;;0.90;0.73;;;;;;;18.63;53.51;98349.84;4956032;28;20451;-82
2022/07/05 01:15:08;;;;;;;0.70;0.70;;;;;;;18.55;52.16;98349.50;4960990;28;20043;-82
2022/07/05 01:17:36;;;;;;;1.00;1.00;;;;;;;18.29;52.80;98346.47;4936837;29;20056;-82
2022/07/05 01:20:06;;;;;;;1.48;0.80;;;;;;;18.33;52.97;98346.78;4949554;29;20043;-81
2022/07/05 01:22:55;;;;;;;0.80;0.80;;;;;;;18.19;53.01;98335.69;4950216;29;20043;-82
2022/07/05 01:25:27;;;;;;;0.73;0.73;;;;;;;18.20;53.15;98347.91;4948198;28;20055;-82
2022/07/05 01:28:03;;;;;;;0.80;0.80;;;;;;;18.15;54.30;98340.69;4950855;29;20043;-83
2022/07/05 01:30:34;;;;;;;1.05;0.88;;;;;;;18.13;54.41;98345.44;4948932;29;20068;-82
2022/07/05 01:33:02;;;;;;;1.50;0.85;;;;;;;18.05;53.61;98337.06;4951773;28;20071;-82
2022/07/05 01:35:28;;;;;;;0.90;0.90;;;;;;;17.98;53.18;98337.22;4949956;28;20039;-82
2022/07/05 01:37:55;;;;;;;1.20;0.80;;;;;;;17.97;54.22;98342.78;4953532;28;20499;-82
2022/07/05 01:40:22;;;;;;;0.70;0.70;;;;;;;18.00;55.38;98339.66;4953278;29;20043;-82
2022/07/05 01:42:49;;;;;;;0.80;0.80;;;;;;;17.96;55.94;98347.28;4941588;28;20134;-81
2022/07/05 01:48:13;;;;;;;0.73;0.73;;;;;;;17.90;56.26;98338.44;4940170;29;20114;-82
2022/07/05 01:50:47;;;;;;;0.90;0.90;;;;;;;17.78;55.42;98332.41;4940997;29;20503;-81
2022/07/05 01:53:27;;;;;;;0.80;0.80;;;;;;;17.75;55.77;98343.50;4951252;29;20403;-82
2022/07/05 01:56:00;;;;;;;1.05;1.00;;;;;;;17.70;55.66;98327.47;4942212;29;20547;-82
2022/07/05 01:58:29;;;;;;;0.90;0.90;;;;;;;17.75;56.05;98340.84;4947482;29;20436;-82
2022/07/05 02:00:57;;;;;;;1.95;0.90;;;;;;;17.74;56.18;98343.72;4947651;29;20043;-82
2022/07/05 02:03:25;;;;;;;0.95;0.90;;;;;;;17.73;56.98;98342.13;4945711;29;20078;-82
2022/07/05 02:06:12;;;;;;;1.30;0.90;;;;;;;17.73;56.95;98340.25;4948629;29;20043;-82
2022/07/05 02:08:39;;;;;;;1.40;0.85;;;;;;;17.66;56.50;98342.25;4949760;28;20039;-82
2022/07/05 02:11:05;;;;;;;0.70;0.70;;;;;;;17.69;56.82;98338.28;4951088;28;20043;-82
2022/07/05 02:13:32;;;;;;;0.75;0.75;;;;;;;17.64;56.92;98339.84;4942924;29;20134;-82
2022/07/05 02:15:59;;;;;;;1.38;0.90;;;;;;;17.54;56.74;98349.44;4947365;29;20047;-83
2022/07/05 02:18:25;;;;;;;0.90;0.90;;;;;;;17.51;57.33;98350.75;4943628;29;20814;-81
2022/07/05 02:20:52;;;;;;;0.80;0.80;;;;;;;17.44;57.86;98338.66;4949276;28;20044;-82
2022/07/05 02:23:18;;;;;;;3.10;1.00;;;;;;;17.40;56.79;98343.63;4954453;28;20074;-82
2022/07/05 02:25:45;;;;;;;1.13;0.90;;;;;;;17.37;57.20;98344.09;4947766;28;20055;-83
2022/07/05 02:28:13;;;;;;;0.80;0.80;;;;;;;17.37;58.57;98342.25;4947070;29;20047;-83
2022/07/05 02:30:40;;;;;;;0.73;0.73;;;;;;;17.43;58.74;98347.66;4953549;28;20074;-83
2022/07/05 02:33:06;;;;;;;0.73;0.73;;;;;;;17.48;58.64;98353.06;4947662;29;20051;-83
2022/07/05 02:35:33;;;;;;;0.80;0.80;;;;;;;17.42;57.79;98338.09;4947659;29;20434;-83
2022/07/05 02:38:00;;;;;;;1.05;0.80;;;;;;;17.46;57.30;98341.88;4948998;28;20101;-83
2022/07/05 02:40:26;;;;;;;1.02;0.93;;;;;;;17.48;56.69;98340.59;4948803;28;20068;-84
2022/07/05 02:42:53;;;;;;;0.90;0.90;;;;;;;17.47;57.29;98348.78;4946425;29;20420;-83
2022/07/05 02:45:19;;;;;;;1.05;0.95;;;;;;;17.41;57.47;98349.75;4949462;28;20130;-83
2022/07/05 02:47:46;;;;;;;1.10;0.90;;;;;;;17.38;57.80;98346.50;4945635;28;21003;-83
2022/07/05 02:50:13;;;;;;;0.70;0.70;;;;;;;17.33;58.25;98349.09;4950055;29;20063;-82
2022/07/05 02:52:39;;;;;;;1.02;1.02;;;;;;;17.29;57.33;98355.09;4949709;29;20047;-82
2022/07/05 02:55:07;;;;;;;1.10;1.05;;;;;;;17.10;58.40;98355.28;4943008;29;20502;-83
2022/07/05 02:57:37;;;;;;;1.17;1.08;;;;;;;16.89;58.13;98357.72;4941681;28;20047;-82
2022/07/05 03:00:05;;;;;;;1.70;1.60;;;;;;;16.68;58.42;98361.78;4943842;29;20044;-82
2022/07/05 03:02:32;;;;;;;1.40;1.30;;;;;;;16.56;59.15;98359.16;4940253;28;20039;-82
2022/07/05 03:04:59;;;;;;;1.15;0.90;;;;;;;16.58;60.23;98349.13;4941963;29;20119;-82
2022/07/05 03:07:25;;;;;;;1.10;1.00;;;;;;;16.68;60.54;98352.00;4950252;28;20070;-83
2022/07/05 03:09:52;;;;;;;0.95;0.80;;;;;;;16.79;59.61;98355.66;4945725;28;20051;-82
2022/07/05 03:12:18;;;;;;;1.02;1.00;;;;;;;16.80;60.49;98366.06;4951059;28;20048;-82
2022/07/05 03:14:45;;;;;;;1.50;1.00;;;;;;;16.79;60.32;98361.78;4948914;29;20142;-83
2022/07/05 03:17:12;;;;;;;1.10;0.90;;;;;;;16.74;61.08;98359.03;4951464;29;20043;-83
2022/07/05 03:19:39;;;;;;;1.95;1.30;;;;;;;16.40;60.54;98375.72;4949178;29;20067;-83
2022/07/05 03:22:06;;;;;;;1.80;1.70;;;;;;;16.12;61.54;98369.25;4940267;29;20067;-83
2022/07/05 03:24:32;;;;;;;1.50;1.40;;;;;;;16.04;61.95;98377.53;4948071;29;20055;-83
2022/07/05 03:26:59;;;;;;;1.42;1.33;;;;;;;15.93;62.39;98387.03;4948081;28;20083;-82
2022/07/05 03:29:27;;;;;;;1.30;1.20;;;;;;;15.92;62.35;98385.44;4942410;29;20039;-82
2022/07/05 03:31:53;;;;;;;1.10;1.10;;;;;;;16.06;64.28;98384.19;4947724;29;20073;-82
2022/07/05 03:34:20;;;;;;;1.00;1.00;;;;;;;16.22;63.61;98388.00;4952263;29;20406;-83
2022/07/05 03:36:47;;;;;;;0.93;0.93;;;;;;;16.39;64.08;98385.50;4966976;28;20055;-83
2022/07/05 03:39:13;;;;;;;1.30;1.20;;;;;;;16.41;62.29;98386.06;4951344;29;20510;-82
2022/07/05 03:41:40;;;;;;;1.33;1.23;;;;;;;16.38;63.18;98398.97;4950587;29;20459;-83
2022/07/05 03:44:07;;;;;;;1.30;1.20;;;;;;;16.24;63.32;98393.88;4945310;29;20051;-82
2022/07/05 03:46:34;;;;;;;1.15;0.95;;;;;;;16.42;64.04;98397.47;4946558;28;20090;-82
2022/07/05 03:49:01;;;;;;;1.00;0.90;;;;;;;16.50;63.84;98402.44;4947703;29;20083;-83
2022/07/05 03:51:27;;;;;;;0.90;0.90;;;;;;;16.49;62.16;98416.66;4946761;29;20043;-83
2022/07/05 03:53:54;;;;;;;1.33;1.20;;;;;;;16.44;62.40;98416.59;4949088;28;20046;-82
2022/07/05 03:56:22;;;;;;;1.02;1.00;;;;;;;16.50;64.95;98410.38;4949218;29;20043;-83
2022/07/05 03:58:50;;;;;;;1.17;0.85;;;;;;;16.61;64.74;98412.19;4939260;29;20050;-83
2022/07/05 04:01:17;;;;;;;1.55;1.15;;;;;;;16.63;64.44;98418.06;4952332;29;20074;-83
2022/07/05 04:03:44;;;;;;;1.10;1.00;;;;;;;16.69;63.28;98417.16;4948268;28;20468;-83
2022/07/05 04:06:12;;;;;;;1.23;1.13;;;;;;;16.65;63.05;98420.50;4949352;29;20043;-83
2022/07/05 04:08:38;;;;;;;1.73;1.40;;;;;;;16.44;62.29;98416.59;4950017;28;20082;-83
2022/07/05 04:11:06;;;;;;;1.60;1.50;;;;;;;16.23;63.58;98431.16;4948350;28;20077;-82
2022/07/05 04:13:32;;;;;;;1.00;0.90;;;;;;;16.26;65.32;98420.94;4945994;28;20169;-83
2022/07/05 04:15:59;;;;;;;1.02;1.02;;;;;;;16.40;65.58;98436.59;4952103;29;20535;-83
2022/07/05 04:18:26;;;;;;;0.75;0.75;;;;;;;16.45;64.27;98426.13;4943237;29;20051;-83
2022/07/05 04:20:52;;;;;;;1.27;1.17;;;;;;;16.52;63.55;98440.06;4948970;28;20586;-82
2022/07/05 04:23:19;;;;;;;1.25;1.15;;;;;;;16.36;63.74;98424.84;4943304;28;20529;-83
2022/07/05 04:25:45;;;;;;;0.85;0.85;;;;;;;16.56;64.51;98433.28;4946021;29;20052;-84
2022/07/05 04:28:12;;;;;;;1.00;1.00;;;;;;;16.61;64.22;98438.66;4946576;29;20117;-82
2022/07/05 04:30:39;;;;;;;1.65;0.98;;;;;;;16.52;63.51;98421.53;4942980;29;20223;-82
2022/07/05 04:33:05;;;;;;;0.73;0.73;;;;;;;16.65;64.51;98431.88;4945817;29;20123;-82
2022/07/05 04:35:32;;;;;;;0.90;0.90;;;;;;;16.69;63.66;98421.66;4946336;29;20126;-82
2022/07/05 04:37:59;;;;;;;1.10;1.00;;;;;;;16.75;63.88;98426.84;4947020;29;20075;-83
2022/07/05 04:40:25;;;;;;;6.65;2.00;;;;;;;16.47;61.19;98427.50;4943136;29;20122;-82
2022/07/05 04:42:52;;;;;;;1.80;1.70;;;;;;;16.41;61.65;98436.34;4947183;28;20051;-83
2022/07/05 04:45:19;;;;;;;1.42;1.33;;;;;;;16.46;63.78;98433.03;4928861;29;20082;-83
2022/07/05 04:47:45;;;;;;;3.72;1.40;;;;;;;16.45;62.92;98437.53;4947373;29;20555;-83
2022/07/05 04:50:12;;;;;;;3.88;2.03;;;;;;;16.24;65.23;98438.06;4956646;28;20043;-83
2022/07/05 04:52:39;;;;;;;2.03;1.70;;;;;;;16.13;66.79;98441.47;4951615;29;20054;-83
2022/07/05 04:55:06;;;;;;;2.55;1.60;;;;;;;16.07;66.87;98437.91;4949918;29;20106;-82
2022/07/05 04:57:39;;;;;;;1.90;1.80;;;;;;;16.02;67.96;98438.59;4949295;28;20094;-82
2022/07/05 05:00:08;;;;;;;2.17;2.08;;;;;;;15.87;66.76;98440.84;4934781;28;20044;-83
2022/07/05 05:02:35;;;;;;;2.42;2.22;;;;;;;15.87;66.57;98446.13;4946293;29;20103;-82
2022/07/05 05:05:02;;;;;;;2.58;2.33;;;;;;;15.88;67.76;98446.94;4949997;28;20119;-81
2022/07/05 05:07:29;;;;;;;2.30;1.50;;;;;;;16.01;67.58;98449.38;4948119;29;20071;-82
2022/07/05 05:10:04;;;;;;;1.60;1.30;;;;;;;16.28;66.45;98447.97;4946894;29;20039;-81
2022/07/05 05:12:31;;;;;;;1.60;1.50;;;;;;;16.45;65.04;98452.59;4946686;28;20127;-81
2022/07/05 05:14:57;;;;;;;1.73;1.40;;;;;;;16.62;65.43;98453.53;4946477;29;20047;-82
2022/07/05 05:17:24;;;;;;;1.55;1.45;;;;;;;16.79;65.32;98449.22;4946608;28;20099;-82
2022/07/05 05:19:50;;;;;;;1.30;1.20;;;;;;;16.93;64.46;98448.97;4943675;28;20075;-82
2022/07/05 05:22:17;;;;;;;1.20;1.10;;;;;;;17.16;65.83;98458.72;4953559;29;20098;-82
2022/07/05 05:24:44;;;;;;;1.20;1.10;;;;;;;17.33;63.91;98447.19;4946684;28;20597;-82
2022/07/05 05:27:10;;;;;;;2.10;1.30;;;;;;;17.48;62.90;98459.13;4945975;29;20046;-82
2022/07/05 05:29:37;;;;;;;1.77;1.20;;;;;;;17.67;61.75;98465.84;4950516;28;20043;-83
2022/07/05 05:32:04;;;;;;;1.38;1.27;;;;;;;17.82;61.25;98460.88;4947603;29;20090;-82
2022/07/05 05:34:31;;;;;;;1.35;1.25;;;;;;;17.98;60.35;98461.94;4943112;28;20047;-83
2022/07/05 05:36:57;;;;;;;2.08;1.40;;;;;;;18.09;61.23;98452.31;4947635;29;20055;-82
2022/07/05 05:39:24;;;;;;;2.00;1.48;;;;;;;18.12;59.07;98467.78;4948267;28;20043;-82
2022/07/05 05:41:51;;;;;;;1.60;1.20;;;;;;;18.35;59.10;98454.38;4943429;28;20052;-83
2022/07/05 05:44:17;;;;;;;1.20;1.10;;;;;;;18.55;58.76;98461.03;4945487;29;20078;-82
2022/07/05 05:46:44;;;;;;;1.35;1.20;;;;;;;18.77;60.81;98459.28;4951213;29;20471;-83
2022/07/05 05:49:10;;;;;;;1.58;1.48;;;;;;;18.93;57.88;98458.44;4944813;28;20098;-82
2022/07/05 05:51:37;;;;;;;2.00;1.10;;;;;;;19.11;59.01;98464.53;4945232;29;20075;-83
2022/07/05 05:54:05;;;;;;;1.00;1.00;;;;;;;19.35;57.56;98460.59;4942519;28;20745;-82
2022/07/05 05:56:32;;;;;;;1.30;1.20;;;;;;;19.49;56.35;98459.19;4949112;29;20477;-82
2022/07/05 05:58:58;;;;;;;1.30;1.20;;;;;;;19.60;54.97;98459.31;4945775;29;20126;-83
2022/07/05 06:01:25;;;;;;;1.40;1.30;;;;;;;19.72;54.36;98457.31;4946386;29;20051;-82
2022/07/05 06:03:52;;;;;;;1.45;1.35;;;;;;;19.91;53.40;98453.28;4947427;29;20043;-82
2022/07/05 06:06:18;;;;;;;1.35;1.05;;;;;;;20.05;55.22;98451.00;4947198;29;20094;-82
2022/07/05 06:08:45;;;;;;;1.15;1.13;;;;;;;20.30;53.35;98463.75;4947405;29;20051;-82
2022/07/05 06:11:13;;;;;;;1.02;1.02;;;;;;;20.47;55.35;98461.78;4949743;29;20098;-82
2022/07/05 06:13:40;;;;;;;1.10;1.10;;;;;;;20.64;51.89;98456.31;4944857;28;20044;-81
2022/07/05 06:16:07;;;;;;;1.33;1.17;;;;;;;20.72;50.65;98458.50;4950684;28;20107;-82
2022/07/05 06:18:34;;;;;;;1.20;1.10;;;;;;;20.81;51.89;98464.16;4942533;28;20573;-82
2022/07/05 06:21:01;;;;;;;1.02;1.02;;;;;;;21.01;53.06;98450.97;4945567;29;20099;-82
2022/07/05 06:23:28;;;;;;;0.93;0.93;;;;;;;21.27;51.31;98459.09;4943500;29;20090;-82
2022/07/05 06:25:55;;;;;;;1.30;1.20;;;;;;;21.32;49.45;98461.81;4947815;28;20136;-82
2022/07/05 06:28:21;;;;;;;1.02;1.00;;;;;;;21.46;50.79;98468.25;4950139;29;20110;-82
2022/07/05 06:30:48;;;;;;;1.35;1.25;;;;;;;21.55;47.83;98461.38;4947700;29;20118;-80
2022/07/05 06:33:15;;;;;;;1.17;1.08;;;;;;;21.64;47.17;98464.31;4944411;28;20121;-80
2022/07/05 06:35:41;;;;;;;1.00;1.00;;;;;;;21.89;48.16;98466.25;4943409;29;20075;-80
2022/07/05 06:38:09;;;;;;;1.10;1.02;;;;;;;21.96;49.07;98455.34;4942174;29;20048;-80
2022/07/05 06:40:42;;;;;;;1.15;1.02;;;;;;;22.10;48.06;98457.25;4960943;28;20039;-80
2022/07/05 06:43:12;;;;;;;1.10;1.00;;;;;;;22.20;46.07;98463.69;4943322;29;20040;-80
2022/07/05 06:45:40;;;;;;;1.27;1.17;;;;;;;22.29;49.05;98462.88;4941931;29;20056;-81
2022/07/05 06:48:10;;;;;;;1.13;1.13;;;;;;;22.39;47.14;98462.88;4945223;29;20047;-82
2022/07/05 06:50:40;;;;;;;1.23;1.02;;;;;;;22.53;50.04;98459.66;4943122;28;20567;-81
2022/07/05 06:53:08;;;;;;;1.30;1.20;;;;;;;22.55;48.11;98474.38;4938544;29;20099;-81
2022/07/05 06:55:35;;;;;;;0.98;0.98;;;;;;;22.59;46.26;98467.41;4957463;28;20044;-80
2022/07/05 06:58:05;;;;;;;1.55;1.10;;;;;;;22.67;46.15;98466.88;4943300;28;20090;-82
2022/07/05 07:00:43;;;;;;;1.80;1.13;;;;;;;22.71;47.49;98462.59;4946842;28;20050;-82
2022/07/05 07:03:30;;;;;;;1.10;1.00;;;;;;;22.99;48.15;98465.00;4941290;29;20048;-81
2022/07/05 07:06:17;;;;;;;0.82;0.82;;;;;;;23.24;46.36;98471.06;4939796;29;20125;-82
2022/07/05 07:11:29;;;;;;;1.73;1.10;;;;;;;23.40;41.63;98481.72;4940897;29;20057;-82
2022/07/05 07:13:57;;;;;;;1.02;1.00;;;;;;;23.47;44.55;98479.56;4945757;29;20102;-82
2022/07/05 07:16:24;;;;;;;1.20;1.00;;;;;;;23.61;43.54;98485.91;4946446;28;20074;-81
2022/07/05 07:18:51;;;;;;;0.95;0.95;;;;;;;23.63;42.54;98481.13;4943110;28;20713;-82
2022/07/05 07:21:38;;;;;;;0.95;0.90;;;;;;;23.72;41.25;98490.19;4946131;29;20054;-82
2022/07/05 07:24:07;;;;;;;0.98;0.98;;;;;;;23.89;41.46;98483.66;4943102;28;20047;-81
2022/07/05 07:27:02;;;;;;;0.85;0.75;;;;;;;24.03;44.58;98490.00;4935269;29;20393;-82
2022/07/05 07:29:21;;;;;;;0.90;0.90;;;;;;;24.13;42.68;98486.47;4945740;28;20136;-81
2022/07/05 07:31:47;;;;;;;0.80;0.80;;;;;;;24.30;40.44;98482.31;4941455;29;20047;-81
2022/07/05 07:34:14;;;;;;;1.65;0.90;;;;;;;24.33;41.17;98485.50;4944416;28;20380;-81
2022/07/05 07:36:41;;;;;;;0.85;0.85;;;;;;;24.45;43.44;98489.47;4945435;29;20043;-81
2022/07/05 07:39:08;;;;;;;1.10;1.00;;;;;;;24.50;43.04;98478.72;4947249;29;20040;-82
2022/07/05 07:41:35;;;;;;;0.90;0.90;;;;;;;24.63;39.87;98490.66;4936943;29;20099;-81
2022/07/05 07:44:01;;;;;;;0.90;0.90;;;;;;;24.82;40.94;98496.91;4940218;29;20071;-81
2022/07/05 07:46:28;;;;;;;0.77;0.77;;;;;;;25.05;41.32;98486.53;4938664;29;20056;-81
2022/07/05 07:48:55;;;;;;;1.50;1.10;;;;;;;25.06;40.34;98480.09;4940709;28;20043;-80
2022/07/05 07:51:22;;;;;;;1.00;0.90;;;;;;;25.23;40.87;98480.44;4941824;28;20067;-81
2022/07/05 07:53:49;;;;;;;1.13;1.02;;;;;;;25.15;39.07;98491.00;4948941;29;20476;-82
2022/07/05 07:56:16;;;;;;;1.20;1.10;;;;;;;25.05;38.57;98478.50;4938323;28;20043;-81
2022/07/05 07:58:43;;;;;;;1.08;0.80;;;;;;;25.27;42.98;98486.06;4940411;29;20043;-81
2022/07/05 08:01:13;;;;;;;0.70;0.70;;;;;;;25.53;41.39;98497.28;4941914;29;20098;-81
2022/07/05 08:03:41;;;;;;;0.70;0.70;;;;;;;25.71;43.01;98482.28;4941648;28;20043;-81
2022/07/05 08:06:13;;;;;;;1.13;0.90;;;;;;;25.64;38.04;98482.66;4942669;29;20047;-81
2022/07/05 08:08:47;;;;;;;0.90;0.90;;;;;;;25.69;39.95;98479.91;4939871;29;20047;-81
2022/07/05 08:11:15;;;;;;;0.93;0.93;;;;;;;25.82;39.07;98473.84;4940944;28;20396;-81
2022/07/05 08:13:42;;;;;;;1.15;1.00;;;;;;;25.91;38.73;98481.22;4943257;28;20901;-82
2022/07/05 08:16:11;;;;;;;0.90;0.90;;;;;;;25.93;38.15;98482.56;4954314;28;20047;-81
2022/07/05 08:21:37;;;;;;;2.25;1.38;;;;;;;26.14;38.39;98478.47;4947086;29;20094;-80
2022/07/05 08:24:08;;;;;;;1.10;1.00;;;;;;;26.34;38.79;98482.75;4945214;29;20095;-79
2022/07/05 08:26:36;;;;;;;0.93;0.93;;;;;;;26.46;38.02;98476.94;4938377;29;20075;-81
2022/07/05 08:29:07;;;;;;;1.45;0.95;;;;;;;26.57;37.83;98480.25;4942114;29;20071;-80
2022/07/05 08:31:41;;;;;;;1.00;1.00;;;;;;;26.62;36.78;98469.41;4956505;28;20130;-82
2022/07/05 08:34:08;;;;;;;1.42;0.93;;;;;;;26.40;34.75;98462.78;4942847;29;20525;-82
2022/07/05 08:36:35;;;;;;;1.25;1.15;;;;;;;26.46;32.06;98470.78;4947218;28;20063;-80
2022/07/05 08:39:04;;;;;;;1.27;1.17;;;;;;;26.23;32.05;98465.19;4967032;28;20125;-83
2022/07/05 08:41:35;;;;;;;1.27;0.90;;;;;;;26.20;33.17;98463.06;4944034;29;20447;-82
2022/07/05 08:44:03;;;;;;;2.20;1.27;;;;;;;26.28;34.50;98467.78;4945550;29;20074;-82
2022/07/05 08:46:32;;;;;;;1.15;1.08;;;;;;;26.34;34.20;98463.13;4961805;28;20134;-81
2022/07/05 08:49:04;;;;;;;1.00;0.90;;;;;;;26.37;32.66;98471.41;4942867;29;20094;-82
2022/07/05 08:51:40;;;;;;;1.10;1.00;;;;;;;26.27;33.26;98462.69;4946689;29;20090;-81
2022/07/05 08:54:11;;;;;;;0.75;0.75;;;;;;;26.34;33.60;98458.56;4945544;28;20043;-82
2022/07/05 08:56:43;;;;;;;1.17;1.08;;;;;;;26.47;33.95;98469.69;4945057;29;20070;-82
2022/07/05 08:59:30;;;;;;;1.00;0.90;;;;;;;26.61;33.27;98465.13;4945201;29;20422;-81
2022/07/05 09:01:59;;;;;;;0.82;0.80;;;;;;;26.77;33.99;98466.47;4942823;29;20044;-81
2022/07/05 09:04:33;;;;;;;0.90;0.90;;;;;;;26.82;33.83;98461.00;4944085;29;20051;-81
2022/07/05 09:07:04;;;;;;;1.00;0.85;;;;;;;26.61;34.02;98473.19;4944190;29;20063;-80
2022/07/05 09:09:34;;;;;;;0.93;0.93;;;;;;;26.29;34.96;98472.06;4946004;28;20071;-81
2022/07/05 09:12:01;;;;;;;1.08;0.98;;;;;;;25.88;33.57;98483.41;4945868;29;20053;-81
2022/07/05 09:14:47;;;;;;;0.70;0.70;;;;;;;26.17;33.27;98462.88;4945583;29;20047;-81
2022/07/05 09:17:14;;;;;;;0.82;0.70;;;;;;;26.60;34.09;98477.78;4942380;28;20534;-80
2022/07/05 09:19:42;;;;;;;1.40;0.80;;;;;;;26.92;35.09;98474.25;4940767;29;20090;-79
2022/07/05 09:22:08;;;;;;;0.70;0.70;;;;;;;27.23;36.15;98468.34;4945199;29;20066;-79
2022/07/05 09:24:45;;;;;;;0.70;0.70;;;;;;;27.48;32.85;98470.50;4939094;29;20400;-80
2022/07/05 09:27:16;;;;;;;0.90;0.90;;;;;;;27.50;33.01;98482.88;4944322;29;20111;-81
2022/07/05 09:29:58;;;;;;;1.52;1.10;;;;;;;27.39;32.73;98471.50;4944027;28;20492;-81
2022/07/05 09:32:32;;;;;;;1.05;1.00;;;;;;;27.38;30.74;98475.31;4944406;29;20074;-82
2022/07/05 09:35:20;;;;;;;1.25;1.15;;;;;;;27.35;32.25;98468.63;4944176;29;20637;-82
2022/07/05 09:37:47;;;;;;;2.08;1.05;;;;;;;27.25;31.66;98473.41;4946278;29;20567;-83
2022/07/05 09:40:14;;;;;;;1.30;0.95;;;;;;;26.85;32.40;98468.47;4945611;28;20047;-81
2022/07/05 09:42:47;;;;;;;1.17;0.95;;;;;;;26.80;32.43;98486.59;4946038;29;20047;-81
2022/07/05 09:45:25;;;;;;;0.85;0.85;;;;;;;26.75;33.15;98484.81;4948406;29;20051;-82
2022/07/05 09:47:55;;;;;;;1.10;0.80;;;;;;;27.04;34.01;98481.03;4942101;29;20042;-80
2022/07/05 09:50:43;;;;;;;1.58;1.00;;;;;;;27.20;33.38;98479.69;4942968;29;20058;-81
2022/07/05 09:53:51;;;;;;;1.00;0.90;;;;;;;27.46;32.02;98480.78;4942773;29;20054;-80
2022/07/05 09:56:29;;;;;;;1.98;1.10;;;;;;;27.61;31.31;98478.88;4944984;29;20044;-82
2022/07/05 09:58:56;;;;;;;1.00;0.95;;;;;;;27.42;32.15;98477.09;4940905;28;20036;-81
2022/07/05 10:01:28;;;;;;;1.08;1.05;;;;;;;27.34;31.53;98474.28;4943406;29;20074;-81
2022/07/05 10:04:03;;;;;;;1.30;1.00;;;;;;;27.33;31.48;98473.50;4945087;29;20566;-81
2022/07/05 10:06:32;;;;;;;0.80;0.77;;;;;;;27.68;32.33;98479.25;4941499;29;20054;-80
2022/07/05 10:08:59;;;;;;;1.20;1.10;;;;;;;27.94;32.04;98472.22;4943325;29;20082;-81
2022/07/05 10:11:27;;;;;;;1.02;1.02;;;;;;;27.95;34.52;98479.25;4949769;29;20047;-80
2022/07/05 10:13:58;;;;;;;1.38;1.10;;;;;;;27.92;30.85;98479.03;4946208;29;20055;-81
2022/07/05 10:16:25;;;;;;;2.60;1.00;;;;;;;27.92;31.67;98479.03;4947000;28;20047;-80
2022/07/05 10:18:56;;;;;;;0.93;0.93;;;;;;;28.22;29.99;98480.25;4943261;28;20046;-80
2022/07/05 10:21:26;;;;;;;1.00;0.95;;;;;;;28.43;29.85;98467.91;4944376;29;20349;-80
2022/07/05 10:23:55;;;;;;;1.25;0.90;;;;;;;28.76;30.32;98464.91;4943887;29;20051;-80
2022/07/05 10:26:24;;;;;;;1.80;1.10;;;;;;;28.53;29.11;98464.94;4945892;29;20093;-82
2022/07/05 10:28:53;;;;;;;1.00;1.00;;;;;;;28.25;33.30;98471.56;4943404;29;20055;-81
2022/07/05 10:31:29;;;;;;;1.13;1.00;;;;;;;27.89;31.27;98472.38;4943986;29;20126;-80
2022/07/05 10:34:07;;;;;;;2.60;1.00;;;;;;;27.39;32.78;98474.19;4944483;29;20071;-80
2022/07/05 10:36:53;;;;;;;1.02;0.90;;;;;;;27.17;32.81;98481.09;4941508;28;20048;-80
2022/07/05 10:39:25;;;;;;;0.90;0.90;;;;;;;27.17;31.74;98480.31;4944714;28;20443;-82
2022/07/05 10:41:54;;;;;;;2.05;1.10;;;;;;;27.34;30.47;98480.47;4940235;29;20102;-80
2022/07/05 10:44:32;;;;;;;1.70;1.00;;;;;;;27.67;32.62;98477.66;4943356;29;20130;-81
2022/07/05 10:47:11;;;;;;;0.82;0.82;;;;;;;27.95;31.86;98473.84;4945334;29;20075;-79
2022/07/05 10:49:40;;;;;;;1.15;0.70;;;;;;;28.33;30.99;98464.66;4947968;29;20051;-80
2022/07/05 10:52:25;;;;;;;3.28;1.40;;;;;;;28.23;29.66;98474.53;4940396;29;20044;-81
2022/07/05 10:55:18;;;;;;;1.08;1.08;;;;;;;28.54;31.81;98477.31;4941859;28;20443;-79
2022/07/05 10:58:38;;;;;;;3.33;1.20;;;;;;;28.58;29.17;98472.09;4944240;28;20103;-80
2022/07/05 11:01:19;;;;;;;1.25;0.80;;;;;;;28.99;31.48;98477.28;4941930;29;20052;-80
2022/07/05 11:04:21;;;;;;;1.83;1.15;;;;;;;29.19;29.07;98483.22;4944948;28;20825;-81
2022/07/05 11:06:49;;;;;;;0.77;0.77;;;;;;;29.00;28.28;98465.38;4943145;29;20861;-81
2022/07/05 11:09:18;;;;;;;0.80;0.80;;;;;;;28.43;29.56;98470.59;4947482;29;20122;-80
2022/07/05 11:12:02;;;;;;;0.80;0.80;;;;;;;28.14;30.11;98476.38;4939164;29;20052;-82
2022/07/05 11:14:50;;;;;;;0.70;0.70;;;;;;;28.20;31.14;98464.38;4945329;29;20488;-79
2022/07/05 11:17:25;;;;;;;2.15;0.90;;;;;;;28.48;29.57;98465.06;4944493;28;20047;-81
2022/07/05 11:20:26;;;;;;;1.10;1.10;;;;;;;28.40;30.23;98465.81;4945628;29;20149;-81
2022/07/05 11:23:12;;;;;;;1.30;1.10;;;;;;;28.24;31.00;98464.53;4946631;29;20047;-82
2022/07/05 11:25:44;;;;;;;0.90;0.90;;;;;;;28.10;30.58;98464.59;4951276;28;20131;-81
2022/07/05 11:28:25;;;;;;;2.85;0.90;;;;;;;27.97;30.48;98460.06;4941415;29;20047;-80
2022/07/05 11:31:01;;;;;;;2.30;1.20;;;;;;;27.84;29.14;98466.28;4943374;29;20054;-82
2022/07/05 11:33:36;;;;;;;1.10;1.00;;;;;;;27.89;29.21;98464.28;4942221;29;20063;-82
2022/07/05 11:36:19;;;;;;;0.88;0.88;;;;;;;28.16;30.45;98463.38;4947644;29;20042;-81
2022/07/05 11:39:18;;;;;;;0.90;0.90;;;;;;;28.48;29.88;98456.97;4944550;29;20130;-80
2022/07/05 11:41:47;;;;;;;1.17;1.00;;;;;;;28.58;27.87;98460.53;4943596;29;20504;-81
2022/07/05 11:44:15;;;;;;;1.00;0.90;;;;;;;28.52;27.93;98449.84;4946853;28;20411;-83
2022/07/05 11:46:44;;;;;;;0.80;0.80;;;;;;;28.57;28.50;98445.44;4945438;29;20059;-80
2022/07/05 11:49:23;;;;;;;1.10;1.00;;;;;;;28.67;29.05;98451.38;4942933;29;20054;-81
2022/07/05 11:52:09;;;;;;;0.85;0.85;;;;;;;28.71;27.98;98452.34;4943790;29;20074;-81
2022/07/05 11:54:36;;;;;;;1.05;0.95;;;;;;;28.78;28.43;98451.88;4939772;28;20458;-82
2022/07/05 11:57:10;;;;;;;1.58;0.80;;;;;;;28.88;27.23;98446.22;4946552;28;20081;-82